Time;durP1;ratioP1;P1;durP2;ratioP2;P2;SDS_P1;SDS_P2;PMS_P1;PMS_P2;Temp;Humidity;BMP_temperature;BMP_pressure;BME280_temperature;BME280_humidity;BME280_pressure;Samples;Min_cycle;Max_cycle;Signal;HPM_P1;HPM_P2
2022/08/15 00:02:04;;;;;;;11.83;10.77;;;22.90;97.10;;;;;;6244984;28;20746;-69
2022/08/15 00:05:28;;;;;;;10.10;9.27;;;22.80;97.30;;;;;;6253053;28;20232;-70
2022/08/15 00:08:36;;;;;;;10.87;9.97;;;22.70;97.40;;;;;;6252873;28;20570;-69
2022/08/15 00:11:59;;;;;;;9.90;9.10;;;22.70;97.60;;;;;;6252630;28;20229;-69
2022/08/15 00:15:08;;;;;;;10.10;9.30;;;22.60;97.70;;;;;;6253388;28;20224;-70
2022/08/15 00:18:13;;;;;;;9.23;8.33;;;22.60;98.00;;;;;;6253138;28;20197;-70
2022/08/15 00:21:19;;;;;;;10.50;9.43;;;22.60;98.20;;;;;;6253035;28;20216;-70
2022/08/15 00:24:28;;;;;;;10.10;9.30;;;22.60;98.30;;;;;;6252694;28;20243;-70
2022/08/15 00:27:33;;;;;;;9.27;8.47;;;22.60;98.10;;;;;;6252958;28;20228;-69
2022/08/15 00:30:39;;;;;;;10.20;9.30;;;22.60;98.20;;;;;;6252773;28;20220;-70
2022/08/15 00:34:01;;;;;;;10.80;9.90;;;22.50;98.30;;;;;;6252404;28;20228;-69
2022/08/15 00:37:05;;;;;;;10.90;10.00;;;22.50;98.30;;;;;;6252794;28;20574;-69
2022/08/15 00:40:10;;;;;;;9.33;8.63;;;22.50;98.30;;;;;;6251045;28;20286;-68
2022/08/15 00:43:22;;;;;;;10.27;9.37;;;22.50;98.70;;;;;;6250483;28;20620;-67
2022/08/15 00:46:33;;;;;;;9.60;8.80;;;22.40;99.00;;;;;;6256516;28;20220;-67
2022/08/15 00:49:38;;;;;;;10.10;9.00;;;22.50;99.10;;;;;;6245387;28;20244;-67
2022/08/15 00:53:04;;;;;;;9.90;8.90;;;22.40;99.20;;;;;;6236325;28;20229;-66
2022/08/15 00:56:09;;;;;;;10.00;9.10;;;22.40;99.30;;;;;;6232886;28;20224;-66
2022/08/15 00:59:36;;;;;;;13.90;9.37;;;22.30;99.40;;;;;;6238582;28;20232;-66
2022/08/15 01:02:47;;;;;;;9.10;8.33;;;22.30;99.60;;;;;;6238330;28;20225;-66
2022/08/15 01:05:52;;;;;;;10.73;9.20;;;22.30;99.70;;;;;;6227407;28;20259;-66
2022/08/15 01:08:56;;;;;;;11.00;9.73;;;22.30;99.70;;;;;;6237118;28;20235;-66
2022/08/15 01:12:05;;;;;;;10.10;9.20;;;22.30;99.70;;;;;;6238410;28;20224;-66
2022/08/15 01:15:14;;;;;;;10.10;9.20;;;22.30;99.70;;;;;;6239221;28;20296;-67
2022/08/15 01:18:19;;;;;;;9.97;9.00;;;22.20;99.80;;;;;;6237907;28;20208;-66
2022/08/15 01:21:41;;;;;;;10.67;9.70;;;22.30;99.90;;;;;;6245850;28;20235;-66
2022/08/15 01:24:59;;;;;;;9.40;8.67;;;22.20;99.90;;;;;;6257480;28;20223;-66
2022/08/15 01:28:27;;;;;;;9.57;8.73;;;22.20;99.90;;;;;;6261502;28;20239;-66
2022/08/15 01:31:35;;;;;;;10.87;10.03;;;22.20;99.90;;;;;;6254205;28;20228;-67
2022/08/15 01:34:38;;;;;;;10.30;9.50;;;22.20;99.90;;;;;;6246633;28;20225;-67
2022/08/15 01:37:51;;;;;;;9.67;8.80;;;22.20;99.90;;;;;;6226282;28;20233;-67
2022/08/15 01:41:11;;;;;;;10.10;9.30;;;22.10;99.90;;;;;;6226342;28;20244;-66
2022/08/15 01:44:21;;;;;;;9.20;8.50;;;22.00;99.90;;;;;;6225942;28;20577;-66
2022/08/15 01:47:42;;;;;;;9.77;8.97;;;21.90;99.90;;;;;;6226081;28;20225;-66
2022/08/15 01:50:49;;;;;;;10.50;9.50;;;21.90;99.90;;;;;;6226240;28;20233;-66
2022/08/15 01:54:05;;;;;;;9.63;8.83;;;21.90;99.90;;;;;;6225667;28;20238;-66
2022/08/15 01:57:12;;;;;;;10.20;9.40;;;21.80;99.90;;;;;;6225836;28;20315;-66
2022/08/15 02:00:18;;;;;;;10.77;9.87;;;21.80;99.90;;;;;;6225490;28;20233;-66
2022/08/15 02:03:33;;;;;;;10.30;9.40;;;21.80;99.90;;;;;;6225702;28;20229;-66
2022/08/15 02:06:53;;;;;;;9.80;9.00;;;21.70;99.90;;;;;;6221422;28;20229;-66
2022/08/15 02:09:58;;;;;;;10.97;9.97;;;21.70;99.90;;;;;;6225937;28;20229;-67
2022/08/15 02:13:23;;;;;;;9.47;8.67;;;21.60;99.90;;;;;;6225939;28;20248;-66
2022/08/15 02:16:31;;;;;;;10.23;9.33;;;21.60;99.90;;;;;;6226101;28;20246;-66
2022/08/15 02:19:36;;;;;;;10.07;9.23;;;21.60;99.90;;;;;;6225686;28;20544;-66
2022/08/15 02:22:52;;;;;;;11.00;10.07;;;21.50;99.90;;;;;;6225518;28;20255;-67
2022/08/15 02:25:55;;;;;;;10.53;9.43;;;21.50;99.90;;;;;;6225594;28;20559;-67
2022/08/15 02:29:01;;;;;;;11.37;10.07;;;21.40;99.90;;;;;;6225525;28;20268;-67
2022/08/15 02:32:11;;;;;;;10.07;9.17;;;21.40;99.90;;;;;;6225258;28;20248;-67
2022/08/15 02:35:16;;;;;;;9.80;9.00;;;21.30;99.90;;;;;;6225288;28;20229;-67
2022/08/15 02:38:20;;;;;;;10.30;9.50;;;21.30;99.90;;;;;;6224936;28;20225;-67
2022/08/15 02:41:31;;;;;;;10.80;9.90;;;21.30;99.90;;;;;;6225324;28;20237;-67
2022/08/15 02:44:49;;;;;;;10.13;9.33;;;21.20;99.90;;;;;;6225115;28;20225;-67
2022/08/15 02:47:53;;;;;;;10.80;9.90;;;21.00;99.90;;;;;;6224876;28;20671;-67
2022/08/15 02:50:56;;;;;;;11.53;10.43;;;21.00;99.90;;;;;;6225128;28;20236;-67
2022/08/15 02:53:59;;;;;;;9.20;8.50;;;21.00;99.90;;;;;;6225391;28;20834;-67
2022/08/15 02:57:23;;;;;;;10.30;9.40;;;20.90;99.90;;;;;;6225150;28;20225;-67
2022/08/15 03:00:30;;;;;;;10.60;9.73;;;20.80;99.90;;;;;;6225090;28;20291;-67
2022/08/15 03:03:38;;;;;;;11.17;10.27;;;20.70;99.90;;;;;;6224697;28;20229;-67
2022/08/15 03:06:44;;;;;;;11.60;10.50;;;20.70;99.90;;;;;;6225129;28;20269;-67
2022/08/15 03:09:50;;;;;;;12.07;10.97;;;20.70;99.90;;;;;;6220461;28;20233;-67
2022/08/15 03:13:01;;;;;;;11.50;10.50;;;20.60;99.90;;;;;;6224637;28;20237;-67
2022/08/15 03:16:06;;;;;;;9.63;8.83;;;20.60;99.90;;;;;;6225341;28;20221;-67
2022/08/15 03:19:19;;;;;;;9.90;9.10;;;20.60;99.90;;;;;;6224607;28;20311;-67
2022/08/15 03:22:23;;;;;;;10.13;9.20;;;20.50;99.90;;;;;;6224886;28;20240;-66
2022/08/15 03:25:49;;;;;;;9.50;8.70;;;20.60;99.90;;;;;;6227428;28;20230;-66
2022/08/15 03:28:59;;;;;;;10.77;9.87;;;20.60;99.90;;;;;;6229569;28;20689;-66
2022/08/15 03:32:12;;;;;;;10.00;9.13;;;20.60;99.90;;;;;;6229528;28;20233;-66
2022/08/15 03:35:40;;;;;;;10.50;9.60;;;20.50;99.90;;;;;;6229308;28;20229;-66
2022/08/15 03:38:44;;;;;;;10.80;9.70;;;20.60;99.90;;;;;;6228712;28;20234;-67
2022/08/15 03:41:55;;;;;;;9.53;8.73;;;20.50;99.90;;;;;;6228828;28;20233;-67
2022/08/15 03:45:00;;;;;;;12.33;10.20;;;20.70;99.90;;;;;;6229086;28;20441;-66
2022/08/15 03:48:09;;;;;;;10.33;9.33;;;20.50;99.90;;;;;;6228772;28;20240;-66
2022/08/15 03:51:25;;;;;;;10.90;9.90;;;20.50;99.90;;;;;;6228925;28;20307;-66
2022/08/15 03:54:34;;;;;;;12.00;10.90;;;20.50;99.90;;;;;;6229306;28;20236;-67
2022/08/15 03:57:41;;;;;;;10.70;9.80;;;20.40;99.90;;;;;;6228927;28;20279;-67
2022/08/15 04:01:07;;;;;;;11.43;10.43;;;20.40;99.90;;;;;;6228435;28;20541;-67
2022/08/15 04:04:11;;;;;;;10.73;9.83;;;20.30;99.90;;;;;;6228301;28;20573;-67
2022/08/15 04:07:21;;;;;;;10.73;9.80;;;20.30;99.90;;;;;;6228824;28;20263;-67
2022/08/15 04:10:25;;;;;;;10.33;9.00;;;20.30;99.90;;;;;;6228325;28;20665;-67
2022/08/15 04:13:44;;;;;;;12.57;11.37;;;20.30;99.90;;;;;;6228398;28;20259;-67
2022/08/15 04:16:53;;;;;;;10.93;9.30;;;20.30;99.90;;;;;;6228308;28;20236;-67
2022/08/15 04:20:11;;;;;;;9.80;8.90;;;20.30;99.90;;;;;;6228531;28;20229;-66
2022/08/15 04:23:35;;;;;;;10.87;9.87;;;20.20;99.90;;;;;;6228246;28;20533;-66
2022/08/15 04:26:38;;;;;;;10.57;9.57;;;20.20;99.90;;;;;;6227728;28;20248;-66
2022/08/15 04:29:53;;;;;;;9.40;8.60;;;20.20;99.90;;;;;;6227791;28;20304;-66
2022/08/15 04:33:07;;;;;;;11.83;10.73;;;20.30;99.90;;;;;;6227328;28;20229;-66
2022/08/15 04:36:25;;;;;;;12.40;11.10;;;20.30;99.90;;;;;;6226971;28;20245;-66
2022/08/15 04:39:32;;;;;;;11.63;10.63;;;20.30;99.90;;;;;;6227784;28;20260;-65
2022/08/15 04:42:46;;;;;;;11.00;10.10;;;20.30;99.90;;;;;;6227253;28;20248;-65
2022/08/15 04:45:53;;;;;;;10.60;9.70;;;20.30;99.90;;;;;;6227493;28;20304;-66
2022/08/15 04:48:59;;;;;;;10.13;9.23;;;20.40;99.90;;;;;;6227169;28;20229;-66
2022/08/15 04:52:11;;;;;;;10.80;9.90;;;20.40;99.90;;;;;;6227458;28;20248;-66
2022/08/15 04:55:16;;;;;;;10.70;9.90;;;20.50;99.90;;;;;;6227199;28;20229;-66
2022/08/15 04:58:19;;;;;;;10.80;9.80;;;20.50;99.90;;;;;;6226891;28;20236;-67
2022/08/15 05:01:43;;;;;;;11.53;10.63;;;20.60;99.90;;;;;;6227115;28;20240;-67
2022/08/15 05:05:08;;;;;;;11.80;10.70;;;20.60;99.90;;;;;;6226988;28;20260;-67
2022/08/15 05:08:14;;;;;;;11.87;10.67;;;20.70;99.90;;;;;;6227023;28;20667;-67
2022/08/15 05:11:19;;;;;;;11.30;9.87;;;20.80;99.90;;;;;;6226890;28;20233;-67
2022/08/15 05:14:24;;;;;;;9.93;9.13;;;21.00;99.90;;;;;;6226868;28;20237;-67
2022/08/15 05:17:38;;;;;;;11.27;10.27;;;21.30;99.90;;;;;;6226778;28;20240;-67
2022/08/15 05:21:00;;;;;;;11.07;10.17;;;21.50;99.90;;;;;;6226672;28;20295;-67
2022/08/15 05:24:05;;;;;;;11.13;10.13;;;21.80;99.90;;;;;;6226461;28;20641;-67
2022/08/15 05:27:08;;;;;;;11.30;10.10;;;21.90;99.90;;;;;;6226279;28;20209;-66
2022/08/15 05:30:13;;;;;;;11.13;10.13;;;22.20;99.90;;;;;;6227076;28;20201;-66
2022/08/15 05:33:22;;;;;;;11.23;10.23;;;22.40;99.90;;;;;;6226311;28;20253;-67
2022/08/15 05:36:49;;;;;;;11.63;10.53;;;22.70;99.90;;;;;;6225919;28;20224;-66
2022/08/15 05:39:56;;;;;;;11.50;10.50;;;23.10;99.90;;;;;;6226335;28;20301;-66
2022/08/15 05:43:11;;;;;;;12.13;11.13;;;23.50;99.30;;;;;;6226279;28;20271;-67
2022/08/15 05:46:23;;;;;;;11.00;9.90;;;23.90;98.50;;;;;;6226517;28;20225;-67
2022/08/15 05:49:38;;;;;;;11.43;10.53;;;24.40;97.50;;;;;;6225941;28;20233;-66
2022/08/15 05:52:51;;;;;;;11.43;10.43;;;24.90;96.40;;;;;;6226004;28;20240;-67
2022/08/15 05:56:11;;;;;;;11.67;10.57;;;25.40;95.20;;;;;;6225752;28;20229;-67
2022/08/15 05:59:31;;;;;;;11.20;10.30;;;25.90;93.90;;;;;;6226031;28;20237;-67
2022/08/15 06:02:40;;;;;;;10.20;9.30;;;26.40;92.50;;;;;;6226692;28;20237;-67
2022/08/15 06:06:03;;;;;;;10.33;9.50;;;26.90;91.10;;;;;;6225657;28;20708;-67
2022/08/15 06:09:38;;;;;;;10.57;9.50;;;27.30;90.00;;;;;;6225395;28;20641;-66
2022/08/15 06:12:48;;;;;;;11.70;10.60;;;28.10;86.60;;;;;;6225943;28;20278;-67
2022/08/15 06:15:58;;;;;;;11.00;10.20;;;28.40;82.60;;;;;;6225648;28;20238;-67
2022/08/15 06:19:05;;;;;;;11.57;10.57;;;28.60;80.20;;;;;;6220949;28;20762;-67
2022/08/15 06:22:22;;;;;;;10.60;9.70;;;28.40;79.30;;;;;;6225294;28;20547;-67
2022/08/15 06:25:38;;;;;;;10.20;9.20;;;28.50;78.90;;;;;;6225496;28;20681;-67
2022/08/15 06:29:08;;;;;;;10.60;9.70;;;29.10;76.30;;;;;;6225940;28;20239;-67
2022/08/15 06:32:17;;;;;;;10.50;9.70;;;29.90;74.40;;;;;;6225319;28;20330;-68
2022/08/15 06:35:36;;;;;;;11.07;10.10;;;30.70;70.80;;;;;;6225531;28;20233;-68
2022/08/15 06:38:55;;;;;;;10.30;9.27;;;31.40;67.60;;;;;;6225404;28;20423;-68
2022/08/15 06:42:07;;;;;;;9.80;9.10;;;32.10;64.50;;;;;;6225173;28;20244;-68
2022/08/15 06:45:19;;;;;;;10.52;9.63;;;32.80;61.70;;;;;;6225341;28;20221;-67
2022/08/15 06:48:25;;;;;;;11.27;10.15;;;33.60;58.40;;;;;;6225073;28;20514;-67
2022/08/15 06:51:48;;;;;;;10.20;9.50;;;34.30;56.40;;;;;;6225068;28;20237;-68
2022/08/15 06:54:53;;;;;;;10.60;9.85;;;34.90;53.90;;;;;;6225427;28;20289;-67
2022/08/15 06:58:04;;;;;;;11.30;10.40;;;35.30;52.70;;;;;;6225313;28;20669;-67
2022/08/15 07:01:44;;;;;;;9.55;8.85;;;35.80;51.40;;;;;;6229135;28;20243;-68
2022/08/15 07:05:14;;;;;;;10.20;9.30;;;36.50;49.30;;;;;;6230008;28;20232;-68
2022/08/15 07:08:36;;;;;;;9.75;9.05;;;37.10;48.30;;;;;;6229996;28;20231;-68
2022/08/15 07:11:46;;;;;;;9.10;8.40;;;38.20;45.70;;;;;;6229691;28;20242;-68
2022/08/15 07:15:05;;;;;;;9.50;8.70;;;38.70;43.60;;;;;;6229784;28;20229;-68
2022/08/15 07:18:15;;;;;;;10.00;9.23;;;39.20;42.40;;;;;;6229842;28;20681;-67
2022/08/15 07:21:22;;;;;;;9.40;8.70;;;39.70;41.00;;;;;;6230479;28;20208;-68
2022/08/15 07:24:30;;;;;;;9.93;9.15;;;40.00;39.70;;;;;;6215992;28;20251;-67
2022/08/15 07:27:38;;;;;;;9.80;9.00;;;40.70;39.00;;;;;;6229940;28;20224;-67
2022/08/15 07:30:47;;;;;;;10.18;9.30;;;41.40;37.60;;;;;;6228945;28;20224;-68
2022/08/15 07:34:03;;;;;;;8.63;7.85;;;41.70;36.50;;;;;;6229254;28;20224;-67
2022/08/15 07:37:24;;;;;;;9.10;8.32;;;42.30;35.40;;;;;;6229279;28;20229;-67
2022/08/15 07:40:30;;;;;;;9.48;8.77;;;42.90;34.20;;;;;;6228969;28;20665;-67
2022/08/15 07:43:38;;;;;;;9.38;8.48;;;43.40;33.10;;;;;;6228979;28;20233;-67
2022/08/15 07:46:50;;;;;;;8.45;7.93;;;43.80;32.20;;;;;;6229504;28;20268;-68
2022/08/15 07:50:05;;;;;;;9.25;8.65;;;44.20;31.50;;;;;;6229276;28;20233;-68
2022/08/15 07:53:19;;;;;;;9.50;8.75;;;44.80;30.80;;;;;;6228658;28;20302;-67
2022/08/15 07:56:23;;;;;;;8.23;7.68;;;45.70;29.80;;;;;;6228994;28;20236;-68
2022/08/15 08:00:08;;;;;;;9.15;8.50;;;45.60;29.10;;;;;;6228750;28;20564;-68
2022/08/15 08:03:33;;;;;;;10.00;9.30;;;46.10;28.90;;;;;;6227580;28;20661;-68
2022/08/15 08:06:42;;;;;;;8.70;8.10;;;45.60;28.70;;;;;;6228836;28;20242;-68
2022/08/15 08:10:02;;;;;;;9.68;8.98;;;45.70;28.80;;;;;;6255993;28;20224;-68
2022/08/15 08:13:39;;;;;;;9.70;8.93;;;46.30;28.70;;;;;;6260185;28;20670;-66
2022/08/15 08:16:53;;;;;;;8.40;7.80;;;47.50;27.90;;;;;;6265981;28;20233;-68
2022/08/15 08:20:12;;;;;;;8.73;8.23;;;47.70;27.60;;;;;;6261671;28;20324;-67
2022/08/15 08:23:24;;;;;;;8.52;7.75;;;48.20;26.60;;;;;;6267932;28;20229;-67
2022/08/15 08:26:38;;;;;;;8.57;7.72;;;49.00;25.70;;;;;;6271723;28;20563;-67
2022/08/15 08:29:47;;;;;;;8.85;8.20;;;49.80;25.20;;;;;;6243786;28;20753;-68
2022/08/15 08:33:00;;;;;;;8.90;8.25;;;50.30;25.10;;;;;;6252395;28;20265;-68
2022/08/15 08:36:15;;;;;;;8.95;8.45;;;50.90;25.00;;;;;;6252583;28;20645;-68
2022/08/15 08:39:48;;;;;;;9.40;8.80;;;51.80;24.20;;;;;;6252092;28;20219;-68
2022/08/15 08:43:00;;;;;;;8.98;8.27;;;52.30;23.70;;;;;;6252005;28;20227;-68
2022/08/15 08:46:15;;;;;;;8.32;7.85;;;52.10;23.00;;;;;;6251098;28;20253;-68
2022/08/15 08:49:40;;;;;;;7.65;7.25;;;51.50;23.50;;;;;;6252338;28;20322;-68
2022/08/15 08:53:17;;;;;;;6.75;6.35;;;51.30;23.30;;;;;;6252562;28;20254;-66
2022/08/15 08:56:38;;;;;;;7.70;7.20;;;51.60;22.90;;;;;;6251409;28;20235;-66
2022/08/15 08:59:49;;;;;;;7.95;7.45;;;51.70;22.70;;;;;;6252234;28;20224;-66
2022/08/15 09:02:57;;;;;;;7.88;7.38;;;51.20;22.90;;;;;;6250545;28;20229;-67
2022/08/15 09:06:02;;;;;;;8.10;7.60;;;49.60;23.70;;;;;;6251047;28;20244;-67
2022/08/15 09:09:11;;;;;;;8.30;7.70;;;48.40;24.70;;;;;;6250928;28;20220;-67
2022/08/15 09:15:48;;;;;;;6.78;6.38;;;46.00;26.00;;;;;;6251626;28;20224;-68
2022/08/15 09:19:04;;;;;;;7.55;7.05;;;44.60;26.40;;;;;;6250627;28;20226;-68
2022/08/15 09:22:14;;;;;;;7.68;7.18;;;43.30;27.40;;;;;;6250455;28;20566;-66
2022/08/15 09:25:18;;;;;;;8.95;7.95;;;42.00;28.90;;;;;;6251019;28;20235;-68
2022/08/15 09:28:34;;;;;;;7.63;7.05;;;41.00;29.90;;;;;;6249551;28;20215;-68
2022/08/15 09:31:41;;;;;;;7.53;7.03;;;40.10;30.20;;;;;;6241454;28;20242;-68
2022/08/15 09:35:02;;;;;;;7.88;7.38;;;39.40;31.70;;;;;;6250374;28;20232;-68
2022/08/15 09:38:34;;;;;;;7.63;7.13;;;38.60;32.20;;;;;;6250588;28;20223;-68
2022/08/15 09:42:03;;;;;;;7.13;6.63;;;37.20;34.10;;;;;;6250877;28;20243;-69
2022/08/15 09:45:52;;;;;;;7.63;7.13;;;36.40;35.40;;;;;;6249890;28;20239;-69
2022/08/15 09:49:07;;;;;;;7.97;7.25;;;35.50;36.60;;;;;;6249878;28;20262;-68
2022/08/15 09:52:24;;;;;;;8.05;7.35;;;35.10;37.20;;;;;;6250431;28;20556;-67
2022/08/15 09:55:44;;;;;;;7.97;7.38;;;34.80;38.20;;;;;;6250862;28;20233;-68
2022/08/15 09:58:53;;;;;;;7.43;6.82;;;34.60;38.10;;;;;;6250572;28;20231;-69
2022/08/15 10:02:10;;;;;;;7.40;6.82;;;34.40;38.60;;;;;;6250892;28;20243;-70
2022/08/15 10:05:45;;;;;;;6.60;6.20;;;34.40;39.20;;;;;;6225244;28;20558;-70
2022/08/15 10:09:23;;;;;;;7.90;7.35;;;34.10;38.80;;;;;;6225094;28;20232;-70
2022/08/15 10:12:31;;;;;;;7.45;6.85;;;33.80;39.90;;;;;;6224346;28;20247;-68
2022/08/15 10:15:41;;;;;;;7.65;7.15;;;33.50;41.40;;;;;;6225194;28;20267;-69
2022/08/15 10:19:09;;;;;;;7.75;7.15;;;33.20;41.60;;;;;;6225819;28;20281;-69
2022/08/15 10:22:41;;;;;;;8.98;8.27;;;33.40;41.80;;;;;;6247222;28;20284;-68
2022/08/15 10:25:49;;;;;;;7.60;7.07;;;33.10;42.40;;;;;;6245944;28;20220;-68
2022/08/15 10:29:04;;;;;;;7.90;7.30;;;33.00;43.10;;;;;;6259534;28;20682;-68
2022/08/15 10:32:23;;;;;;;8.20;7.50;;;33.00;42.50;;;;;;6257026;28;20223;-69
2022/08/15 10:35:49;;;;;;;7.97;7.38;;;33.20;42.80;;;;;;6224098;28;20239;-69
2022/08/15 10:39:12;;;;;;;8.73;8.02;;;33.40;42.70;;;;;;6225109;28;20228;-67
2022/08/15 10:42:31;;;;;;;7.38;6.88;;;33.50;43.00;;;;;;6225330;28;20339;-68
2022/08/15 10:45:46;;;;;;;6.90;6.38;;;33.30;43.90;;;;;;6225321;28;20238;-68
2022/08/15 10:49:09;;;;;;;7.93;7.32;;;33.40;43.60;;;;;;6250479;28;20223;-69
2022/08/15 10:52:26;;;;;;;7.20;6.60;;;33.40;43.70;;;;;;6259757;28;20238;-69
2022/08/15 10:55:32;;;;;;;8.38;7.78;;;33.40;42.90;;;;;;6262208;28;20326;-68
2022/08/15 10:59:02;;;;;;;7.93;7.38;;;33.30;43.40;;;;;;6259711;28;20223;-69
2022/08/15 11:02:11;;;;;;;7.75;7.15;;;33.30;43.20;;;;;;6234737;28;20239;-69
2022/08/15 11:05:20;;;;;;;7.38;6.88;;;33.40;43.60;;;;;;6233349;28;20228;-67
2022/08/15 11:08:25;;;;;;;7.35;6.68;;;33.50;43.70;;;;;;6235017;28;20243;-68
2022/08/15 11:11:37;;;;;;;8.48;7.75;;;33.10;44.60;;;;;;6233466;28;20224;-69
2022/08/15 11:14:43;;;;;;;8.40;7.80;;;33.20;44.50;;;;;;6235049;28;20223;-68
2022/08/15 11:17:50;;;;;;;8.20;7.45;;;33.40;45.00;;;;;;6236124;28;20264;-68
2022/08/15 11:21:01;;;;;;;6.80;6.30;;;33.50;44.30;;;;;;6237513;28;20216;-68
2022/08/15 11:24:08;;;;;;;8.27;7.72;;;33.80;44.40;;;;;;6248003;28;20232;-69
2022/08/15 11:27:15;;;;;;;7.85;7.25;;;34.10;43.30;;;;;;6239378;28;20240;-68
2022/08/15 11:30:28;;;;;;;8.75;8.05;;;34.30;43.50;;;;;;6246905;28;20295;-69
2022/08/15 11:33:41;;;;;;;7.72;7.22;;;34.40;42.70;;;;;;6247829;28;20228;-67
2022/08/15 11:36:44;;;;;;;6.93;6.35;;;34.50;42.50;;;;;;6247565;28;20259;-66
2022/08/15 11:39:54;;;;;;;7.00;6.60;;;34.70;41.80;;;;;;6247812;28;20230;-67
2022/08/15 11:43:03;;;;;;;7.63;7.13;;;34.40;42.70;;;;;;6231087;28;20313;-68
2022/08/15 11:46:13;;;;;;;7.18;6.65;;;34.30;42.50;;;;;;6225996;28;20234;-67
2022/08/15 11:49:42;;;;;;;7.28;6.78;;;34.20;42.40;;;;;;6228674;28;20233;-67
2022/08/15 11:52:54;;;;;;;7.50;6.90;;;34.30;42.80;;;;;;6229184;28;20245;-67
2022/08/15 11:55:59;;;;;;;6.40;6.00;;;34.00;42.70;;;;;;6229214;28;20232;-68
2022/08/15 11:59:13;;;;;;;7.25;6.70;;;33.60;43.40;;;;;;6228995;28;20228;-68
2022/08/15 12:02:31;;;;;;;7.22;6.72;;;33.30;43.20;;;;;;6227299;28;20251;-68
2022/08/15 12:05:38;;;;;;;6.35;5.85;;;33.20;43.80;;;;;;6227070;28;20242;-68
2022/08/15 12:09:12;;;;;;;7.40;6.80;;;33.00;41.70;;;;;;6226966;28;20244;-68
2022/08/15 12:12:28;;;;;;;6.68;6.28;;;33.20;41.70;;;;;;6227071;28;20217;-68
2022/08/15 12:15:43;;;;;;;6.43;5.97;;;33.50;41.40;;;;;;6227181;28;20251;-69
2022/08/15 12:18:48;;;;;;;6.60;6.20;;;33.70;41.40;;;;;;6228232;28;20236;-68
2022/08/15 12:21:58;;;;;;;5.00;4.70;;;34.00;40.20;;;;;;6228175;28;20813;-68
2022/08/15 12:25:22;;;;;;;6.72;6.22;;;34.10;39.90;;;;;;6228318;28;20232;-68
2022/08/15 12:28:46;;;;;;;6.10;5.70;;;34.00;39.80;;;;;;6227173;28;20532;-68
2022/08/15 12:31:59;;;;;;;6.00;5.47;;;33.90;39.50;;;;;;6228258;28;20573;-68
2022/08/15 12:35:03;;;;;;;6.03;5.63;;;34.00;39.80;;;;;;6228177;28;20232;-68
2022/08/15 12:38:06;;;;;;;5.40;5.07;;;34.20;39.20;;;;;;6227713;28;20224;-68
2022/08/15 12:41:11;;;;;;;5.90;5.50;;;34.00;39.50;;;;;;6227688;28;20251;-68
2022/08/15 12:44:38;;;;;;;5.82;5.32;;;33.60;39.70;;;;;;6218755;28;20228;-68
2022/08/15 12:47:50;;;;;;;5.78;5.38;;;33.20;40.50;;;;;;6227573;28;20229;-68
2022/08/15 12:51:11;;;;;;;5.55;5.15;;;33.50;39.70;;;;;;6227559;28;20240;-68
2022/08/15 12:54:15;;;;;;;5.35;4.95;;;33.40;39.40;;;;;;6227423;28;20236;-68
2022/08/15 12:57:29;;;;;;;5.55;5.00;;;33.70;38.90;;;;;;6226727;28;20186;-69
2022/08/15 13:00:57;;;;;;;5.20;4.90;;;33.80;37.80;;;;;;6227613;28;20225;-68
2022/08/15 13:04:20;;;;;;;4.97;4.68;;;33.60;37.60;;;;;;6227433;28;20239;-68
2022/08/15 13:07:43;;;;;;;5.47;5.07;;;33.80;37.70;;;;;;6227157;28;20229;-69
2022/08/15 13:11:08;;;;;;;5.63;5.22;;;33.80;38.20;;;;;;6226984;28;20233;-68
2022/08/15 13:14:20;;;;;;;5.85;4.53;;;33.60;37.10;;;;;;6230109;28;20717;-68
2022/08/15 13:17:28;;;;;;;5.43;5.13;;;33.60;37.70;;;;;;6230044;28;20681;-68
2022/08/15 13:24:12;;;;;;;5.60;5.20;;;33.60;38.90;;;;;;6227272;28;20235;-69
2022/08/15 13:27:22;;;;;;;6.00;5.40;;;33.40;39.00;;;;;;6228907;28;20775;-68
2022/08/15 13:30:30;;;;;;;5.53;5.22;;;33.70;38.90;;;;;;6229608;28;20236;-68
2022/08/15 13:33:44;;;;;;;6.10;5.70;;;33.80;39.50;;;;;;6226769;28;20224;-69
2022/08/15 13:36:52;;;;;;;5.88;5.38;;;34.00;38.60;;;;;;6226310;28;20235;-69
2022/08/15 13:39:58;;;;;;;5.28;4.97;;;34.30;38.10;;;;;;6226956;28;20379;-69
2022/08/15 13:43:03;;;;;;;5.07;4.78;;;34.50;38.00;;;;;;6225948;28;20675;-68
2022/08/15 13:46:15;;;;;;;5.70;4.72;;;34.40;36.50;;;;;;6222440;28;20242;-69
2022/08/15 13:49:39;;;;;;;5.20;4.90;;;34.50;37.30;;;;;;6226457;28;20306;-69
2022/08/15 13:52:42;;;;;;;4.93;4.57;;;34.10;36.40;;;;;;6226520;28;20287;-69
2022/08/15 13:55:52;;;;;;;5.00;4.70;;;33.80;36.60;;;;;;6226088;28;20319;-68
2022/08/15 13:58:58;;;;;;;5.07;4.78;;;33.60;37.00;;;;;;6226338;28;20236;-69
2022/08/15 14:02:03;;;;;;;6.68;4.80;;;33.10;36.70;;;;;;6225860;28;20246;-68
2022/08/15 14:05:29;;;;;;;5.05;4.75;;;33.10;37.30;;;;;;6226004;28;20244;-68
2022/08/15 14:08:36;;;;;;;5.07;4.68;;;33.10;38.00;;;;;;6225621;28;20398;-68
2022/08/15 14:12:00;;;;;;;4.85;4.45;;;33.00;38.00;;;;;;6225604;28;20259;-68
2022/08/15 14:15:04;;;;;;;5.00;4.70;;;32.80;38.90;;;;;;6225754;28;20299;-67
2022/08/15 14:18:09;;;;;;;4.72;4.32;;;32.80;37.90;;;;;;6225603;28;20239;-67
2022/08/15 14:21:33;;;;;;;3.85;3.65;;;32.90;37.50;;;;;;6225242;28;20228;-68
2022/08/15 14:24:36;;;;;;;4.72;4.43;;;33.00;36.70;;;;;;6225698;28;20224;-68
2022/08/15 14:27:59;;;;;;;5.13;4.82;;;32.80;36.80;;;;;;6226013;28;20559;-67
2022/08/15 14:31:04;;;;;;;5.65;5.32;;;32.80;37.30;;;;;;6225306;28;20243;-67
2022/08/15 14:34:27;;;;;;;5.50;5.03;;;32.80;38.70;;;;;;6225424;28;20236;-68
2022/08/15 14:37:53;;;;;;;4.68;4.28;;;32.60;38.70;;;;;;6225464;28;20225;-68
2022/08/15 14:40:58;;;;;;;5.18;4.82;;;32.60;38.10;;;;;;6225146;28;20234;-68
2022/08/15 14:44:01;;;;;;;5.18;4.88;;;32.70;37.70;;;;;;6224761;28;20281;-68
2022/08/15 14:47:07;;;;;;;4.63;4.28;;;32.80;36.80;;;;;;6225276;28;20252;-68
2022/08/15 14:50:13;;;;;;;4.85;4.40;;;32.90;36.40;;;;;;6225194;28;20228;-68
2022/08/15 14:53:38;;;;;;;4.97;4.50;;;32.90;36.20;;;;;;6224733;28;20550;-68
2022/08/15 14:56:44;;;;;;;4.85;4.45;;;32.90;36.20;;;;;;6225362;28;20274;-67
2022/08/15 14:59:48;;;;;;;4.90;4.45;;;32.80;35.70;;;;;;6225318;28;20680;-68
2022/08/15 15:03:08;;;;;;;4.40;4.10;;;32.80;35.90;;;;;;6225092;28;20692;-67
2022/08/15 15:06:14;;;;;;;4.28;4.03;;;32.80;35.40;;;;;;6224736;28;20227;-68
2022/08/15 15:09:33;;;;;;;4.63;4.32;;;32.70;35.80;;;;;;6225184;28;20271;-69
2022/08/15 15:12:41;;;;;;;4.93;4.63;;;32.70;35.50;;;;;;6224744;28;20229;-67
2022/08/15 15:15:48;;;;;;;5.35;4.85;;;32.70;36.00;;;;;;6224819;28;20280;-68
2022/08/15 15:19:13;;;;;;;5.70;5.30;;;32.70;38.30;;;;;;6224538;28;20236;-69
2022/08/15 15:22:20;;;;;;;6.13;5.63;;;32.90;39.30;;;;;;6228644;28;20228;-68
2022/08/15 15:25:25;;;;;;;5.43;5.13;;;32.90;39.70;;;;;;6229828;28;20239;-67
2022/08/15 15:28:30;;;;;;;5.38;5.03;;;32.80;40.30;;;;;;6229340;28;20255;-67
2022/08/15 15:31:49;;;;;;;5.80;5.30;;;32.80;40.30;;;;;;6229370;28;20617;-69
2022/08/15 15:34:59;;;;;;;6.70;6.03;;;32.70;40.90;;;;;;6229241;28;20232;-67
2022/08/15 15:38:03;;;;;;;6.20;5.80;;;32.50;41.90;;;;;;6231753;28;20232;-67
2022/08/15 15:41:27;;;;;;;6.20;5.70;;;32.30;42.30;;;;;;6229447;28;20668;-68
2022/08/15 15:44:37;;;;;;;5.88;5.47;;;32.00;43.10;;;;;;6228765;28;20322;-68
2022/08/15 15:47:44;;;;;;;6.28;5.78;;;31.80;43.60;;;;;;6229142;28;20244;-68
2022/08/15 15:51:05;;;;;;;6.25;5.85;;;31.60;43.90;;;;;;6229090;28;20235;-68
2022/08/15 15:54:10;;;;;;;5.95;5.15;;;31.50;44.60;;;;;;6228702;28;20573;-68
2022/08/15 15:57:35;;;;;;;5.75;5.35;;;31.40;44.50;;;;;;6228657;28;20233;-68
2022/08/15 16:00:59;;;;;;;6.13;5.72;;;31.40;44.70;;;;;;6229128;28;20232;-69
2022/08/15 16:04:22;;;;;;;5.28;4.88;;;31.30;44.70;;;;;;6228576;28;20236;-68
2022/08/15 16:07:27;;;;;;;5.70;5.07;;;31.10;44.90;;;;;;6228411;28;20232;-68
2022/08/15 16:10:55;;;;;;;5.63;5.22;;;30.90;45.20;;;;;;6229181;28;20228;-69
2022/08/15 16:14:03;;;;;;;5.90;5.10;;;30.80;46.30;;;;;;6229293;28;20691;-68
2022/08/15 16:17:12;;;;;;;5.55;4.97;;;30.60;46.10;;;;;;6228792;28;20252;-68
2022/08/15 16:20:22;;;;;;;7.88;5.00;;;30.60;46.40;;;;;;6228442;28;20239;-68
2022/08/15 16:23:52;;;;;;;5.22;4.82;;;30.60;46.40;;;;;;6228138;28;20233;-69
2022/08/15 16:27:02;;;;;;;5.25;4.75;;;30.50;47.60;;;;;;6229638;28;20684;-68
2022/08/15 16:30:11;;;;;;;5.40;5.00;;;30.50;48.80;;;;;;6264147;28;20223;-68
2022/08/15 16:33:39;;;;;;;5.80;5.40;;;30.30;49.30;;;;;;6275552;28;20654;-67
2022/08/15 16:36:48;;;;;;;6.00;5.50;;;30.30;49.30;;;;;;6271196;28;20269;-67
2022/08/15 16:39:58;;;;;;;4.93;4.63;;;30.30;48.90;;;;;;6277280;28;20721;-67
2022/08/15 16:43:27;;;;;;;5.57;5.07;;;30.30;50.20;;;;;;6276534;28;20657;-67
2022/08/15 16:47:04;;;;;;;4.53;4.22;;;30.30;49.60;;;;;;6270287;28;20226;-70
2022/08/15 16:50:38;;;;;;;7.28;6.60;;;30.30;50.20;;;;;;6250136;28;20521;-65